createdAt,value
2019-05-09T00:00:55.493Z,7.90
2019-05-09T00:03:23.949Z,11.07
2019-05-09T00:05:50.103Z,8.10
2019-05-09T00:08:16.860Z,8.83
2019-05-09T00:10:44.874Z,9.97
2019-05-09T00:13:13.531Z,10.83
2019-05-09T00:15:40.016Z,8.90
2019-05-09T00:18:06.610Z,9.37
2019-05-09T00:20:46.771Z,9.83
2019-05-09T00:23:13.634Z,7.20
2019-05-09T00:25:40.173Z,10.00
2019-05-09T00:28:06.964Z,11.07
2019-05-09T00:30:54.109Z,10.87
2019-05-09T00:33:23.536Z,9.00
2019-05-09T00:35:49.808Z,9.20
2019-05-09T00:38:18.116Z,14.47
2019-05-09T00:40:55.309Z,5.67
2019-05-09T00:43:13.240Z,10.57
2019-05-09T00:45:58.626Z,8.07
2019-05-09T00:48:26.757Z,9.67
2019-05-09T00:50:54.438Z,7.00
2019-05-09T00:53:23.198Z,9.20
2019-05-09T00:55:49.491Z,8.50
2019-05-09T00:58:15.840Z,9.70
2019-05-09T01:00:43.975Z,7.57
2019-05-09T01:03:10.578Z,7.07
2019-05-09T01:05:37.040Z,11.83
2019-05-09T01:08:04.307Z,7.97
2019-05-09T01:10:30.726Z,6.50
2019-05-09T01:12:57.156Z,12.00
2019-05-09T01:15:24.112Z,6.30
2019-05-09T01:17:50.482Z,13.07
2019-05-09T01:20:17.463Z,9.33
2019-05-09T01:22:44.120Z,10.47
2019-05-09T01:25:10.807Z,8.20
2019-05-09T01:27:37.405Z,5.77
2019-05-09T01:30:04.739Z,6.47
2019-05-09T01:32:49.716Z,7.63
2019-05-09T01:35:16.021Z,10.30
2019-05-09T01:37:43.353Z,12.97
2019-05-09T01:40:10.160Z,9.27
2019-05-09T01:42:36.620Z,8.97
2019-05-09T01:45:06.167Z,7.80
2019-05-09T01:47:34.138Z,9.37
2019-05-09T01:50:00.653Z,8.37
2019-05-09T01:52:26.891Z,8.80
2019-05-09T01:54:54.119Z,7.77
2019-05-09T01:57:20.520Z,8.43
2019-05-09T01:59:46.808Z,6.70
2019-05-09T02:02:14.248Z,7.73
2019-05-09T02:04:41.144Z,10.37
2019-05-09T02:07:08.238Z,15.10
2019-05-09T02:09:34.883Z,9.73
2019-05-09T02:12:03.560Z,11.83
2019-05-09T02:14:37.381Z,7.57
2019-05-09T02:17:05.892Z,13.40
2019-05-09T02:19:40.094Z,7.60
2019-05-09T02:22:08.226Z,13.23
2019-05-09T02:24:34.836Z,11.00
2019-05-09T02:27:03.788Z,8.60
2019-05-09T02:29:29.685Z,9.40
2019-05-09T02:31:55.961Z,9.13
2019-05-09T02:34:24.848Z,9.57
2019-05-09T02:36:50.553Z,11.77
2019-05-09T02:39:18.919Z,9.50
2019-05-09T02:42:01.058Z,12.83
2019-05-09T02:44:13.857Z,11.37
2019-05-09T02:46:42.094Z,12.07
2019-05-09T02:49:08.969Z,9.67
2019-05-09T02:51:38.445Z,10.90
2019-05-09T02:54:03.895Z,11.57
2019-05-09T02:56:30.534Z,9.47
2019-05-09T02:58:59.125Z,8.63
2019-05-09T03:01:29.430Z,10.83
2019-05-09T03:03:55.495Z,11.30
2019-05-09T03:06:21.636Z,12.17
2019-05-09T03:08:49.070Z,8.33
2019-05-09T03:11:18.554Z,8.47
2019-05-09T03:13:43.534Z,16.20
2019-05-09T03:16:11.661Z,13.93
2019-05-09T03:18:38.919Z,8.73
2019-05-09T03:21:08.988Z,8.17
2019-05-09T03:23:38.526Z,8.37
2019-05-09T03:26:04.438Z,11.63
2019-05-09T03:28:38.869Z,16.77
2019-05-09T03:31:09.473Z,15.83
2019-05-09T03:33:36.010Z,13.13
2019-05-09T03:36:03.205Z,12.17
2019-05-09T03:38:29.409Z,9.67
2019-05-09T03:40:57.887Z,15.00
2019-05-09T03:43:23.574Z,9.77
2019-05-09T03:45:51.679Z,8.23
2019-05-09T03:48:31.632Z,15.50
2019-05-09T03:50:57.837Z,10.50
2019-05-09T03:53:23.952Z,14.43
2019-05-09T03:55:52.081Z,10.00
2019-05-09T03:58:20.188Z,9.33
2019-05-09T04:00:47.902Z,12.20
2019-05-09T04:03:14.238Z,13.67
2019-05-09T04:05:55.107Z,10.00
2019-05-09T04:08:18.426Z,9.23
2019-05-09T04:10:50.114Z,11.57
2019-05-09T04:13:17.876Z,7.07
2019-05-09T04:15:43.583Z,10.53
2019-05-09T04:18:09.694Z,10.73
2019-05-09T04:20:37.694Z,15.67
2019-05-09T04:23:03.814Z,10.60
2019-05-09T04:25:31.838Z,14.67
2019-05-09T04:27:58.429Z,13.23
2019-05-09T04:30:24.694Z,12.10
2019-05-09T04:32:50.801Z,10.10
2019-05-09T04:35:17.527Z,9.43
2019-05-09T04:37:43.909Z,8.03
2019-05-09T04:40:10.277Z,10.03
2019-05-09T04:42:43.076Z,8.57
2019-05-09T04:45:09.732Z,7.77
2019-05-09T04:47:41.435Z,8.13
2019-05-09T04:50:04.582Z,9.23
2019-05-09T04:52:30.838Z,11.20
2019-05-09T04:54:57.576Z,8.33
2019-05-09T04:57:23.875Z,9.93
2019-05-09T04:59:50.156Z,11.87
2019-05-09T05:02:21.007Z,11.27
2019-05-09T05:04:47.897Z,14.17
2019-05-09T05:07:14.261Z,10.97
2019-05-09T05:09:40.388Z,9.63
2019-05-09T05:12:08.409Z,8.13
2019-05-09T05:14:34.526Z,10.43
2019-05-09T05:17:07.687Z,12.07
2019-05-09T05:19:31.520Z,6.63
2019-05-09T05:21:58.704Z,8.40
2019-05-09T05:24:29.561Z,10.93
2019-05-09T05:26:57.882Z,8.73
2019-05-09T05:29:23.811Z,8.93
2019-05-09T05:31:50.944Z,11.53
2019-05-09T05:34:18.976Z,12.40
2019-05-09T05:36:45.101Z,8.90
2019-05-09T05:39:11.218Z,8.53
2019-05-09T05:41:37.875Z,10.53
2019-05-09T05:44:04.274Z,12.30
2019-05-09T05:46:32.294Z,8.47
2019-05-09T05:48:58.596Z,6.73
2019-05-09T05:51:24.728Z,7.87
2019-05-09T05:53:50.904Z,8.63
2019-05-09T05:56:17.585Z,15.50
2019-05-09T05:58:44.054Z,7.00
2019-05-09T06:01:10.485Z,9.50
2019-05-09T06:03:37.694Z,14.00
2019-05-09T06:06:04.137Z,13.00
2019-05-09T06:08:30.246Z,10.13
2019-05-09T06:10:57.614Z,9.27
2019-05-09T06:13:23.979Z,12.07
2019-05-09T06:15:50.095Z,11.80
2019-05-09T06:18:18.354Z,6.60
2019-05-09T06:20:45.849Z,9.77
2019-05-09T06:23:12.385Z,10.53
2019-05-09T06:25:38.927Z,11.00
2019-05-09T06:28:07.506Z,8.93
2019-05-09T06:30:33.372Z,10.43
2019-05-09T06:32:59.586Z,12.87
2019-05-09T06:35:28.042Z,8.47
2019-05-09T06:37:54.093Z,12.07
2019-05-09T06:40:21.904Z,9.50
2019-05-09T06:42:48.986Z,11.50
2019-05-09T06:45:31.540Z,12.33
2019-05-09T06:47:58.310Z,16.90
2019-05-09T06:50:27.281Z,17.27
2019-05-09T06:52:53.501Z,16.17
2019-05-09T06:55:19.741Z,8.57
2019-05-09T06:57:48.682Z,12.23
2019-05-09T07:00:28.233Z,10.03
2019-05-09T07:03:00.828Z,11.87
2019-05-09T07:05:29.209Z,7.97
2019-05-09T07:08:08.143Z,20.77
2019-05-09T07:10:34.269Z,13.10
2019-05-09T07:13:00.469Z,11.40
2019-05-09T07:15:28.338Z,14.93
2019-05-09T07:17:54.628Z,10.13
2019-05-09T07:20:20.738Z,14.80
2019-05-09T07:22:48.747Z,11.83
2019-05-09T07:25:18.641Z,8.73
2019-05-09T07:27:48.111Z,10.00
2019-05-09T07:30:22.286Z,13.83
2019-05-09T07:32:57.981Z,10.70
2019-05-09T07:35:24.161Z,14.07
2019-05-09T07:37:50.435Z,10.30
2019-05-09T07:40:18.087Z,10.93
2019-05-09T07:42:44.440Z,8.87
2019-05-09T07:45:10.782Z,12.73
2019-05-09T07:47:38.790Z,13.03
2019-05-09T07:50:08.240Z,17.60
2019-05-09T07:52:33.393Z,7.53
2019-05-09T07:55:00.023Z,9.90
2019-05-09T07:57:28.529Z,11.60
2019-05-09T07:59:54.292Z,10.70
2019-05-09T08:02:20.595Z,13.13
2019-05-09T08:04:48.863Z,14.37
2019-05-09T08:07:17.433Z,10.90
2019-05-09T08:09:42.893Z,10.43
2019-05-09T08:12:08.994Z,10.03
2019-05-09T08:14:37.539Z,8.43
2019-05-09T08:17:03.148Z,12.77
2019-05-09T08:19:29.252Z,12.43
2019-05-09T08:21:57.516Z,10.50
2019-05-09T08:24:23.531Z,11.87
2019-05-09T08:26:49.748Z,9.70
2019-05-09T08:29:19.552Z,10.60
2019-05-09T08:31:45.617Z,14.03
2019-05-09T08:34:11.912Z,12.67
2019-05-09T08:36:38.518Z,9.60
2019-05-09T08:39:07.884Z,14.50
2019-05-09T08:41:33.573Z,14.37
2019-05-09T08:43:59.707Z,10.83
2019-05-09T08:46:25.820Z,13.00
2019-05-09T08:48:51.920Z,8.57
2019-05-09T08:51:37.467Z,14.67
2019-05-09T08:53:57.782Z,11.03
2019-05-09T08:56:24.142Z,11.27
2019-05-09T08:58:50.291Z,10.57
2019-05-09T09:01:27.196Z,12.53
2019-05-09T09:03:44.458Z,11.37
2019-05-09T09:06:10.667Z,16.43
2019-05-09T09:08:37.955Z,14.30
2019-05-09T09:11:04.376Z,13.53
2019-05-09T09:13:30.523Z,11.77
2019-05-09T09:16:12.050Z,18.10
2019-05-09T09:18:25.207Z,11.53
2019-05-09T09:20:51.331Z,12.57
2019-05-09T09:23:18.204Z,15.27
2019-05-09T09:25:44.497Z,13.87
2019-05-09T09:28:10.650Z,12.77
2019-05-09T09:30:38.546Z,12.03
2019-05-09T09:33:04.949Z,14.83
2019-05-09T09:35:31.100Z,13.40
2019-05-09T09:37:58.102Z,9.53
2019-05-09T09:40:24.527Z,12.00
2019-05-09T09:42:50.653Z,18.37
2019-05-09T09:45:18.400Z,11.63
2019-05-09T09:47:44.846Z,14.23
2019-05-09T09:50:11.585Z,10.63
2019-05-09T09:52:38.433Z,8.07
2019-05-09T09:55:05.303Z,13.63
2019-05-09T09:57:31.675Z,13.03
2019-05-09T10:00:11.646Z,15.43
2019-05-09T10:02:38.035Z,15.10
2019-05-09T10:05:07.576Z,14.27
2019-05-09T10:07:33.610Z,12.07
2019-05-09T10:09:59.853Z,12.23
2019-05-09T10:12:28.423Z,12.67
2019-05-09T10:14:57.754Z,11.03
2019-05-09T10:17:38.637Z,9.53
2019-05-09T10:20:08.104Z,18.70
2019-05-09T10:22:34.348Z,14.73
2019-05-09T10:25:00.605Z,20.63
2019-05-09T10:27:28.408Z,18.77
2019-05-09T10:29:54.767Z,14.27
2019-05-09T10:32:20.994Z,16.53
2019-05-09T10:34:48.805Z,15.00
2019-05-09T10:37:15.168Z,16.17
2019-05-09T10:39:41.459Z,14.07
2019-05-09T10:42:12.354Z,17.13
2019-05-09T10:44:40.441Z,19.07
2019-05-09T10:47:08.746Z,17.57
2019-05-09T10:49:34.916Z,18.03
2019-05-09T10:52:01.211Z,15.80
2019-05-09T10:54:27.918Z,18.03
2019-05-09T10:56:54.158Z,16.83
2019-05-09T10:59:20.366Z,20.63
2019-05-09T11:01:49.384Z,14.77
2019-05-09T11:04:14.759Z,16.90
2019-05-09T11:06:40.963Z,16.80
2019-05-09T11:09:08.720Z,16.43
2019-05-09T11:11:35.006Z,16.10
2019-05-09T11:14:01.273Z,18.07
2019-05-09T11:16:39.556Z,16.13
2019-05-09T11:18:55.516Z,14.80
2019-05-09T11:21:21.800Z,13.50
2019-05-09T11:23:48.809Z,11.20
2019-05-09T11:26:17.680Z,15.70
2019-05-09T11:28:43.290Z,14.60
2019-05-09T11:31:09.710Z,9.77
2019-05-09T11:33:38.627Z,16.77
2019-05-09T11:36:04.202Z,17.97
2019-05-09T11:38:36.158Z,13.43
2019-05-09T11:40:58.521Z,11.03
2019-05-09T11:43:25.687Z,12.03
2019-05-09T11:45:51.881Z,16.97
2019-05-09T11:48:18.668Z,12.80
2019-05-09T11:50:45.030Z,15.83
2019-05-09T11:53:11.390Z,11.13
2019-05-09T11:55:42.918Z,10.97
2019-05-09T11:58:08.170Z,16.03
2019-05-09T12:00:33.720Z,19.00
2019-05-09T12:02:59.923Z,11.97
2019-05-09T12:05:28.756Z,17.10
2019-05-09T12:07:57.921Z,15.20
2019-05-09T12:10:23.309Z,9.90
2019-05-09T12:12:49.521Z,15.73
2019-05-09T12:15:15.899Z,12.23
2019-05-09T12:17:56.574Z,11.77
2019-05-09T12:20:13.593Z,12.63
2019-05-09T12:22:38.773Z,13.97
2019-05-09T12:25:08.403Z,14.03
2019-05-09T12:27:34.035Z,12.87
2019-05-09T12:30:00.267Z,11.23
2019-05-09T12:32:28.610Z,14.80
2019-05-09T12:34:57.549Z,13.50
2019-05-09T12:37:22.885Z,16.03
2019-05-09T12:39:49.142Z,21.67
2019-05-09T12:42:18.271Z,18.33
2019-05-09T12:44:43.495Z,12.43
2019-05-09T12:47:09.738Z,16.97
2019-05-09T12:49:38.470Z,18.60
2019-05-09T12:52:03.959Z,12.83
2019-05-09T12:54:30.173Z,16.03
2019-05-09T12:56:58.975Z,16.40
2019-05-09T12:59:25.263Z,13.67
2019-05-09T13:01:51.460Z,13.40
2019-05-09T13:04:17.574Z,16.47
2019-05-09T13:06:43.823Z,16.03
2019-05-09T13:09:10.028Z,16.37
2019-05-09T13:11:38.638Z,12.17
2019-05-09T13:14:04.384Z,14.37
2019-05-09T13:16:48.514Z,14.23
2019-05-09T13:19:08.472Z,11.57
2019-05-09T13:21:34.631Z,14.40
2019-05-09T13:24:01.131Z,16.60
2019-05-09T13:26:28.907Z,16.23
2019-05-09T13:28:55.515Z,21.10
2019-05-09T13:31:21.697Z,11.57
2019-05-09T13:33:48.693Z,17.70
2019-05-09T13:36:15.086Z,16.83
2019-05-09T13:38:55.481Z,18.47
2019-05-09T13:41:09.237Z,17.53
2019-05-09T13:43:46.010Z,11.33
2019-05-09T13:46:03.567Z,14.97
2019-05-09T13:48:55.214Z,20.33
2019-05-09T13:50:57.884Z,12.67
2019-05-09T13:53:24.074Z,12.47
2019-05-09T13:55:50.329Z,17.23
2019-05-09T13:58:19.527Z,12.77
2019-05-09T14:00:58.393Z,25.23
2019-05-09T14:03:12.613Z,19.20
2019-05-09T14:05:38.809Z,21.07
2019-05-09T14:08:05.056Z,22.17
2019-05-09T14:10:31.280Z,22.53
2019-05-09T14:13:06.813Z,14.97
2019-05-09T14:15:28.775Z,17.20
2019-05-09T14:17:55.007Z,13.57
2019-05-09T14:20:21.146Z,15.10
2019-05-09T14:22:49.045Z,16.70
2019-05-09T14:25:15.347Z,12.67
2019-05-09T14:27:41.579Z,15.37
2019-05-09T14:30:08.299Z,9.03
2019-05-09T14:32:35.120Z,18.23
2019-05-09T14:35:01.861Z,17.17
2019-05-09T14:37:31.710Z,15.73
2019-05-09T14:39:59.526Z,12.50
2019-05-09T14:42:25.921Z,21.87
2019-05-09T14:44:52.106Z,18.27
2019-05-09T14:47:18.340Z,14.63
2019-05-09T14:49:44.879Z,19.97
2019-05-09T14:52:11.084Z,23.60
2019-05-09T14:54:39.211Z,20.10
2019-05-09T14:57:05.371Z,27.53
2019-05-09T14:59:31.582Z,17.37
2019-05-09T15:01:59.085Z,23.50
2019-05-09T15:04:27.742Z,28.17
2019-05-09T15:06:53.560Z,34.07
2019-05-09T15:09:19.792Z,21.90
2019-05-09T15:11:48.413Z,29.00
2019-05-09T15:14:14.166Z,29.70
2019-05-09T15:16:40.397Z,35.80
2019-05-09T15:19:08.370Z,27.77
2019-05-09T15:21:34.525Z,35.43
2019-05-09T15:24:00.945Z,23.73
2019-05-09T15:26:27.709Z,24.53
2019-05-09T15:28:54.041Z,18.40
2019-05-09T15:31:20.282Z,25.07
2019-05-09T15:33:48.538Z,14.00
2019-05-09T15:36:14.494Z,20.07
2019-05-09T15:38:40.646Z,18.77
2019-05-09T15:41:12.050Z,21.33
2019-05-09T15:43:35.037Z,26.13
2019-05-09T15:46:03.089Z,22.97
2019-05-09T15:48:29.217Z,23.43
2019-05-09T15:50:55.366Z,21.47
2019-05-09T15:53:21.627Z,20.17
2019-05-09T15:55:48.086Z,23.93
2019-05-09T15:58:14.313Z,21.13
2019-05-09T16:00:40.670Z,14.10
2019-05-09T16:03:06.882Z,12.77
2019-05-09T16:05:33.822Z,11.33
2019-05-09T16:08:00.063Z,13.03
2019-05-09T16:10:28.333Z,10.03
2019-05-09T16:12:54.300Z,11.40
2019-05-09T16:15:20.674Z,13.67
2019-05-09T16:17:48.480Z,9.67
2019-05-09T16:20:17.922Z,13.40
2019-05-09T16:22:43.407Z,14.77
2019-05-09T16:25:10.015Z,7.43
2019-05-09T16:27:37.887Z,10.10
2019-05-09T16:30:08.274Z,10.23
2019-05-09T16:32:34.081Z,13.33
2019-05-09T16:35:00.184Z,17.23
2019-05-09T16:37:28.338Z,14.53
2019-05-09T16:39:54.908Z,22.20
2019-05-09T16:42:21.191Z,10.80
2019-05-09T16:44:48.114Z,17.37
2019-05-09T16:47:14.456Z,15.57
2019-05-09T16:49:40.715Z,16.20
2019-05-09T16:52:07.452Z,28.83
2019-05-09T16:54:35.606Z,18.67
2019-05-09T16:57:01.725Z,16.70
2019-05-09T16:59:28.199Z,17.07
2019-05-09T17:01:54.402Z,19.57
2019-05-09T17:04:20.599Z,16.07
2019-05-09T17:06:46.742Z,14.53
2019-05-09T17:09:12.960Z,16.97
2019-05-09T17:11:39.654Z,21.07
2019-05-09T17:14:08.239Z,14.00
2019-05-09T17:16:34.221Z,15.27
2019-05-09T17:19:00.438Z,17.43
2019-05-09T17:21:28.583Z,17.47
2019-05-09T17:23:55.397Z,23.37
2019-05-09T17:26:21.648Z,17.07
2019-05-09T17:28:48.501Z,17.33
2019-05-09T17:31:14.818Z,18.00
2019-05-09T17:33:40.942Z,17.47
2019-05-09T17:36:07.192Z,34.77
2019-05-09T17:38:33.432Z,19.63
2019-05-09T17:40:59.553Z,17.90
2019-05-09T17:43:27.680Z,19.20
2019-05-09T17:45:54.035Z,21.77
2019-05-09T17:48:20.437Z,15.80
2019-05-09T17:50:46.768Z,22.57
2019-05-09T17:53:12.979Z,21.87
2019-05-09T17:55:39.198Z,20.93
2019-05-09T17:58:08.484Z,26.40
2019-05-09T18:00:33.582Z,21.50
2019-05-09T18:02:59.718Z,16.03
2019-05-09T18:05:28.054Z,14.23
2019-05-09T18:07:54.385Z,23.18
2019-05-09T18:10:20.701Z,14.73
2019-05-09T18:12:47.957Z,18.37
2019-05-09T18:15:18.648Z,20.27
2019-05-09T18:17:45.013Z,17.20
2019-05-09T18:20:11.970Z,14.87
2019-05-09T18:22:38.185Z,17.97
2019-05-09T18:25:05.490Z,15.77
2019-05-09T18:27:31.680Z,19.83
2019-05-09T18:29:58.293Z,25.83
2019-05-09T18:32:29.413Z,24.10
2019-05-09T18:35:15.462Z,15.77
2019-05-09T18:37:48.021Z,23.90
2019-05-09T18:40:13.338Z,18.47
2019-05-09T18:42:39.603Z,21.07
2019-05-09T18:45:08.014Z,16.90
2019-05-09T18:47:34.238Z,18.63
2019-05-09T18:50:00.567Z,20.87
2019-05-09T18:52:28.636Z,17.05
2019-05-09T18:54:54.856Z,14.87
2019-05-09T18:57:21.102Z,18.10
2019-05-09T18:59:47.340Z,22.97
2019-05-09T19:02:13.714Z,21.70
2019-05-09T19:04:39.944Z,19.33
2019-05-09T19:07:21.354Z,20.93
2019-05-09T19:09:34.342Z,24.97
2019-05-09T19:12:00.572Z,19.43
2019-05-09T19:14:26.912Z,27.37
2019-05-09T19:17:11.439Z,30.50
2019-05-09T19:19:42.560Z,20.90
2019-05-09T19:22:21.514Z,24.17
2019-05-09T19:24:36.894Z,24.87
2019-05-09T19:27:03.124Z,31.47
2019-05-09T19:29:29.363Z,24.57
2019-05-09T19:31:55.515Z,21.07
2019-05-09T19:34:21.753Z,22.87
2019-05-09T19:36:48.181Z,22.27
2019-05-09T19:39:14.429Z,24.83
2019-05-09T19:41:40.749Z,25.70
2019-05-09T19:44:07.073Z,27.33
2019-05-09T19:49:06.724Z,21.53
2019-05-09T19:51:32.941Z,24.27
2019-05-09T19:53:59.168Z,24.40
2019-05-09T19:56:25.606Z,21.17
2019-05-09T19:58:51.727Z,20.67
2019-05-09T20:01:17.958Z,24.30
2019-05-09T20:03:44.211Z,26.67
2019-05-09T20:06:10.332Z,24.63
2019-05-09T20:08:36.557Z,27.40
2019-05-09T20:11:22.698Z,26.23
2019-05-09T20:13:56.602Z,26.40
2019-05-09T20:16:23.625Z,33.43
2019-05-09T20:18:50.150Z,29.43
2019-05-09T20:21:16.406Z,27.43
2019-05-09T20:23:42.624Z,24.83
2019-05-09T20:26:08.848Z,24.03
2019-05-09T20:28:34.969Z,17.00
2019-05-09T20:31:01.206Z,13.63
2019-05-09T20:33:27.421Z,14.40
2019-05-09T20:35:54.154Z,18.83
2019-05-09T20:38:20.342Z,11.17
2019-05-09T20:40:46.504Z,20.10
2019-05-09T20:43:12.628Z,22.97
2019-05-09T20:45:38.954Z,30.43
2019-05-09T20:48:05.294Z,24.50
2019-05-09T20:50:31.505Z,21.70
2019-05-09T20:53:09.090Z,22.57
2019-05-09T20:55:25.657Z,24.43
2019-05-09T20:57:52.181Z,29.70
2019-05-09T21:00:18.711Z,20.30
2019-05-09T21:02:44.960Z,16.37
2019-05-09T21:05:11.160Z,15.50
2019-05-09T21:07:37.407Z,28.40
2019-05-09T21:10:04.760Z,19.87
2019-05-09T21:12:30.869Z,16.87
2019-05-09T21:14:56.972Z,21.43
2019-05-09T21:17:23.224Z,32.40
2019-05-09T21:19:49.356Z,23.27
2019-05-09T21:22:15.621Z,30.63
2019-05-09T21:24:41.790Z,33.63
2019-05-09T21:27:07.987Z,30.03
2019-05-09T21:29:34.124Z,29.57
2019-05-09T21:32:00.275Z,28.83
2019-05-09T21:34:26.488Z,25.43
2019-05-09T21:36:52.684Z,31.87
2019-05-09T21:39:20.738Z,18.73
2019-05-09T21:41:46.874Z,24.43
2019-05-09T21:44:13.070Z,21.57
2019-05-09T21:46:39.281Z,21.03
2019-05-09T21:49:05.464Z,20.43
2019-05-09T21:51:31.673Z,27.80
2019-05-09T21:53:57.817Z,18.73
2019-05-09T21:56:23.936Z,20.87
2019-05-09T21:58:50.047Z,24.63
2019-05-09T22:01:17.673Z,22.00
2019-05-09T22:03:44.093Z,22.30
2019-05-09T22:06:10.309Z,19.40
2019-05-09T22:08:36.501Z,18.87
2019-05-09T22:11:02.762Z,20.57
2019-05-09T22:13:28.902Z,15.97
2019-05-09T22:15:55.063Z,19.73
2019-05-09T22:18:21.385Z,16.57
2019-05-09T22:20:47.600Z,16.13
2019-05-09T22:23:13.797Z,16.63
2019-05-09T22:25:39.917Z,17.57
2019-05-09T22:28:06.022Z,15.80
2019-05-09T22:30:32.161Z,14.43
2019-05-09T22:32:58.361Z,17.23
2019-05-09T22:35:24.464Z,16.67
2019-05-09T22:37:50.702Z,12.53
2019-05-09T22:40:17.108Z,15.57
2019-05-09T22:42:43.216Z,20.60
2019-05-09T22:45:09.986Z,15.10
2019-05-09T22:47:36.300Z,16.97
2019-05-09T22:50:03.833Z,16.27
2019-05-09T22:52:29.979Z,20.80
2019-05-09T22:54:56.205Z,14.20
2019-05-09T22:57:22.610Z,16.17
2019-05-09T22:59:48.785Z,14.10
2019-05-09T23:02:14.967Z,11.53
2019-05-09T23:04:41.080Z,12.97
2019-05-09T23:07:07.328Z,16.27
2019-05-09T23:09:33.629Z,16.30
2019-05-09T23:11:59.836Z,15.13
2019-05-09T23:14:26.517Z,18.33
2019-05-09T23:16:52.737Z,12.70
2019-05-09T23:19:18.834Z,17.17
2019-05-09T23:21:44.971Z,11.73
2019-05-09T23:24:28.072Z,15.40
2019-05-09T23:26:44.027Z,16.13
2019-05-09T23:29:10.317Z,13.43
2019-05-09T23:31:44.404Z,15.37
2019-05-09T23:34:10.729Z,13.60
2019-05-09T23:36:36.980Z,20.23
2019-05-09T23:39:08.758Z,16.87
2019-05-09T23:41:34.996Z,19.87
2019-05-09T23:44:01.121Z,11.53
2019-05-09T23:46:27.223Z,17.60
2019-05-09T23:48:53.356Z,15.37
2019-05-09T23:51:19.516Z,17.93
2019-05-09T23:53:54.089Z,13.07
2019-05-09T23:56:39.171Z,10.80
2019-05-09T23:59:24.127Z,14.00
